Briefing drone pour Bourg-de-peage

Rechercher une autre localisation

Conditions de vol :


Nous sommes le : Dimanche 20 septembre 2020
Il est 04:08 UTC (06:08 LT)

Lever de soleil : 04:58 UTC (06:58 LT)
Coucher de soleil : 18:07 UTC (20:07 LT)

Météo

L'essentiel des conditions de vol

VIGILANCE MÉTÉO FRANCE - Drôme (26)
Vigilance Jaune : Orages
CARTE TEMSI
CARTES DES FRONTS
METAR de LFLU
LFLU 191800Z AUTO 00000KT CAVOK 20/18 Q1013

Date d'émission: 19/09/2020
Heure d'émission: 18:00 UTC
Vent: Calme
Visibilité horizontale: > 10 km
Plafond : Plafond et visibilité OK (CAVOK)
Température: 20 °C
Point de rosée: 18 °C
Humidité: 88%
Pression (QNH): 1013 hPa
Prévision 24h pour Valence (10 km)
Vent : 117° pour 1 KT (3 km/h)
Temperature Maxi: 16 °C
Temperature Min: 16 °C
Humidité : 83%
Condition : Légère pluie



Warning: count(): Parameter must be an array or an object that implements Countable in /homepages/6/d509196549/htdocs/droneoxygene/briefing.php on line 743
WEBCAM POUR BOURG-DE-PEAGE

Réglementation

Voler en sécurité

CARTES AERONAUTIQUE 1/500.000
CARTES VAC (LFLU)
SUP AIP




Chargement des AIP...
NOTAM (BOURG-DE-PEAGE + Terrain à proximité / FIR )




Chargement des NOTAMS...
CONTACT PREFECTURE 26
Drôme (26) : ddt-sdsr@drome.gouv.fr


Avertissement : Les données mises à disposition sont indicatives. Oxygène Drone ne pourra être tenu responsable de dégâts causés aux biens et aux personnes.